Latest Weather Observations for Narrabri

IDN60801

Issued at 8:32 am EST Thursday 29 June 2017 (issued every 30 minutes, with the page automatically refreshed every 10 minutes)

About weather observations | Map of weather stations | Latest weather observations for NSW | Other Formats
Station Details ID: 054038 Name: NARRABRI AIRPORT AWS Lat: -30.32 Lon: 149.83 Height: 229.02 m
Data from the previous 72 hours. | See also: Recent months at Narrabri
Date/Time
EST
Temp
°C
App
Temp
°C
Dew
Point
°C
Rel
Hum
%
Delta-T
°C
Wind Press
QNH
hPa
Press
MSL
hPa
Rain since
9am
mm
Dir  Spd
km/h
Gust
km/h
Spd
kts
Gust
kts
29/08:30am 12.9 11.3 11.5 91 0.7 E 11 13 6 7 1021.5 1021.5 24.8
29/08:25am 12.8 11.5 11.4 91 0.7 E 9 13 5 7 1021.3 1021.3 24.6
29/08:00am 12.9 12.0 11.5 91 0.7 ESE 7 11 4 6 1021.2 1021.2 24.2
29/07:30am 12.9 13.4 11.5 91 0.8 CALM 0 0 0 0 1021.2 1021.2 24.0
29/07:26am 12.8 13.2 11.4 91 0.7 CALM 0 0 0 0 1021.3 1021.3 23.8
29/07:10am 12.8 13.2 11.4 91 0.7 CALM 0 0 0 0 1021.1 1021.1 23.4
29/07:00am 12.8 13.2 11.4 91 0.7 CALM 0 0 0 0 1021.1 1021.1 22.8
29/06:49am 12.8 13.2 11.4 91 0.7 CALM 0 0 0 0 1021.3 1021.3 22.2
29/06:46am 12.8 13.2 11.4 91 0.7 CALM 0 0 0 0 1021.3 1021.3 22.0
29/06:30am 12.9 13.4 11.5 91 0.8 CALM 0 0 0 0 1021.0 1021.0 20.2
29/06:00am 12.9 12.1 11.6 92 0.7 SSW 7 11 4 6 1020.6 1020.7 18.2
29/05:30am 12.9 13.0 11.5 91 0.8 S 2 7 1 4 1020.3 1020.4 18.2
29/05:00am 12.8 13.2 11.4 91 0.7 CALM 0 0 0 0 1020.4 1020.5 18.0
29/04:35am 12.8 12.1 11.4 91 0.7 WNW 6 9 3 5 1020.4 1020.5 17.8
29/04:30am 12.7 12.4 11.3 91 0.7 N 4 6 2 3 1020.4 1020.5 17.6
29/04:00am 12.7 11.4 11.3 91 0.7 NNE 9 11 5 6 1020.5 1020.6 16.6
29/03:30am 12.7 12.4 11.3 91 0.7 ESE 4 9 2 5 1019.9 1020.0 15.4
29/03:00am 12.7 12.0 11.3 91 0.7 WSW 6 9 3 5 1020.6 1020.7 14.4
29/02:30am 12.8 11.9 11.2 90 0.9 SSE 7 11 4 6 1019.7 1019.8 10.2
29/02:00am 13.5 11.6 11.9 90 0.9 E 13 19 7 10 1019.8 1019.9 10.2
29/01:30am 13.2 12.1 11.8 91 0.8 ESE 9 15 5 8 1020.1 1020.2 10.2
29/01:00am 13.2 12.1 11.8 91 0.8 SE 9 11 5 6 1020.4 1020.5 10.2
29/12:30am 13.0 12.2 11.6 91 0.8 SE 7 13 4 7 1020.9 1020.9 10.2
29/12:00am 13.1 12.3 11.7 91 0.8 SSE 7 9 4 5 1021.7 1021.7 10.0
 
Date/Time
EST
Temp
°C
App
Temp
°C
Dew
Point
°C
Rel
Hum
%
Delta-T
°C
Wind Press
QNH
hPa
Press
MSL
hPa
Rain since
9am
mm
Dir  Spd
km/h
Gust
km/h
Spd
kts
Gust
kts
28/11:30pm 13.3 12.2 11.9 91 0.8 SSE 9 11 5 6 1021.7 1021.7 9.6
28/11:00pm 13.5 11.7 12.1 91 0.8 ESE 13 17 7 9 1021.7 1021.7 9.6
28/10:30pm 13.6 11.4 12.2 91 0.8 SE 15 20 8 11 1022.1 1022.1 9.0
28/10:00pm 13.5 11.3 12.1 91 0.8 SE 15 22 8 12 1021.9 1021.9 8.0
28/09:30pm 13.5 11.2 11.9 90 0.9 SSE 15 20 8 11 1022.2 1022.2 6.8
28/09:00pm 13.6 11.8 12.0 90 0.9 SE 13 20 7 11 1022.5 1022.5 5.4
28/08:30pm 13.5 11.2 11.9 90 0.9 SSE 15 20 8 11 1022.1 1022.1 5.0
28/08:00pm 13.6 11.0 12.0 90 0.9 SE 17 24 9 13 1021.7 1021.7 4.2
28/07:30pm 13.7 11.4 11.9 89 1.0 SE 15 24 8 13 1022.1 1022.1 2.8
28/07:00pm 13.6 10.9 11.8 89 1.0 SSE 17 24 9 13 1021.7 1021.7 2.4
28/06:30pm 13.8 12.0 12.0 89 1.0 SSE 13 19 7 10 1022.2 1022.2 1.8
28/06:00pm 13.7 12.3 12.1 90 0.9 SSE 11 15 6 8 1021.6 1021.6 1.8
28/05:30pm 13.7 12.3 12.1 90 0.9 SSE 11 17 6 9 1021.4 1021.4 1.8
28/05:00pm 14.0 13.0 12.4 90 0.9 SSE 9 11 5 6 1021.3 1021.3 1.8
28/04:30pm 14.4 13.5 12.6 89 1.0 ESE 9 13 5 7 1021.3 1021.3 1.8
28/04:00pm 14.4 14.8 12.6 89 1.0 SSE 2 7 1 4 1021.3 1021.3 1.8
28/03:30pm 14.4 13.1 12.4 88 1.1 E 11 17 6 9 1021.0 1021.0 1.8
28/03:00pm 14.7 14.3 12.9 89 1.0 SSE 7 11 4 6 1021.0 1021.0 1.8
28/02:30pm 14.6 13.8 13.0 90 0.9 SSE 9 13 5 7 1020.9 1020.9 1.8
28/02:00pm 14.1 11.5 12.0 87 1.1 S 17 20 9 11 1020.9 1020.9 0.4
28/01:30pm 14.5 13.2 12.4 87 1.2 SSE 11 13 6 7 1021.0 1021.0 0.4
28/01:00pm 14.6 12.6 12.6 88 1.1 SSE 15 17 8 9 1021.2 1021.2 0.4
28/12:30pm 14.5 12.8 12.5 88 1.1 S 13 15 7 8 1021.6 1021.6 0.4
28/12:00pm 14.8 13.9 12.5 86 1.3 S 9 15 5 8 1022.1 1022.1 0.4
28/11:30am 15.8 16.2 13.6 87 1.2 SSW 4 7 2 4 1022.4 1022.4 0.4
28/11:00am 14.8 15.0 13.2 90 0.9 SSE 4 9 2 5 1022.9 1023.0 0.4
28/10:30am 13.9 13.5 12.3 90 0.9 SSE 6 9 3 5 1023.3 1023.4 0.4
28/10:00am 13.4 12.7 12.0 91 0.8 E 7 9 4 5 1023.4 1023.5 0.4
28/09:30am 12.0 10.1 10.4 90 0.8 S 11 13 6 7 1023.4 1023.5 0.4
28/09:00am 11.5 9.0 9.8 89 0.9 SSE 13 17 7 9 1023.6 1023.7 2.2
28/08:30am 12.0 11.6 9.9 87 1.1 SSE 2 7 1 4 1023.2 1023.3 0.4
28/08:00am 12.0 11.9 9.4 84 1.3 CALM 0 7 0 4 1023.1 1023.2 0.0
28/07:30am 11.8 9.9 9.2 84 1.3 SE 9 11 5 6 1022.8 1022.9 0.0
28/07:00am 11.6 8.1 8.8 83 1.4 SE 17 24 9 13 1022.7 1022.7 0.0
28/06:30am 11.9 8.0 8.6 80 1.7 SE 19 26 10 14 1022.5 1022.5 0.0
28/06:00am 12.0 7.5 8.7 80 1.7 SE 22 28 12 15 1022.3 1022.3 0.0
28/05:30am 11.8 6.9 8.5 80 1.7 SSE 24 33 13 18 1022.5 1022.5 0.0
28/05:00am 12.1 7.5 8.2 77 1.9 SE 22 30 12 16 1022.4 1022.4 0.0
28/04:30am 12.2 7.9 7.9 75 2.1 SSE 20 26 11 14 1022.5 1022.5 0.0
28/04:00am 12.4 8.7 8.1 75 2.1 SE 17 24 9 13 1022.3 1022.3 0.0
28/03:30am 12.4 8.4 8.3 76 2.1 SE 19 24 10 13 1022.1 1022.1 0.0
28/03:00am 12.5 9.0 8.6 77 2.0 SE 17 24 9 13 1022.1 1022.1 0.0
28/02:30am 12.2 8.7 8.9 80 1.7 SE 17 22 9 12 1022.0 1022.0 0.0
28/02:00am 11.8 9.0 8.5 80 1.6 SSE 13 15 7 8 1022.5 1022.5 0.0
28/01:30am 12.2 10.1 8.3 77 1.9 S 9 13 5 7 1022.6 1022.6 0.0
28/01:00am 13.0 11.3 8.3 73 2.4 ENE 7 13 4 7 1022.6 1022.6 0.0
28/12:30am 13.4 9.8 8.3 71 2.6 SE 17 20 9 11 1022.5 1022.5 0.0
28/12:00am 13.0 11.0 8.7 75 2.2 SE 9 15 5 8 1023.0 1023.1 0.0
 
Date/Time
EST
Temp
°C
App
Temp
°C
Dew
Point
°C
Rel
Hum
%
Delta-T
°C
Wind Press
QNH
hPa
Press
MSL
hPa
Rain since
9am
mm
Dir  Spd
km/h
Gust
km/h
Spd
kts
Gust
kts
27/11:30pm 12.4 11.3 8.5 77 2.0 E 4 9 2 5 1023.1 1023.2 0.0
27/11:00pm 12.1 10.4 8.4 78 1.8 SE 7 9 4 5 1023.1 1023.2 0.0
27/10:30pm 11.4 11.0 8.1 80 1.6 CALM 0 7 0 4 1022.9 1023.0 0.0
27/10:00pm 12.0 11.5 7.9 76 2.0 CALM 0 2 0 1 1023.0 1023.1 0.0
27/09:30pm 11.1 9.3 7.2 77 1.9 ENE 6 7 3 4 1022.9 1023.0 0.0
27/09:00pm 11.9 11.3 7.4 74 2.2 CALM 0 0 0 0 1022.9 1023.0 0.0
27/08:30pm 12.8 11.8 7.3 69 2.7 NE 2 9 1 5 1022.7 1022.7 0.0
27/08:00pm 13.7 12.4 7.5 66 3.1 SE 4 11 2 6 1022.6 1022.6 0.0
27/07:30pm 13.8 11.9 7.6 66 3.1 SE 7 15 4 8 1022.7 1022.7 0.0
27/07:00pm 13.8 10.7 7.3 65 3.2 SE 13 17 7 9 1022.7 1022.7 0.0
27/06:30pm 13.4 11.6 7.2 66 3.1 SE 6 9 3 5 1022.6 1022.6 0.0
27/06:00pm 13.6 11.7 6.9 64 3.3 SE 6 13 3 7 1022.4 1022.4 0.0
27/05:30pm 13.7 11.3 6.8 63 3.4 ESE 9 13 5 7 1022.4 1022.4 0.0
27/05:00pm 13.9 11.9 7.0 63 3.4 SE 7 9 4 5 1022.5 1022.5 0.0
27/04:30pm 14.0 12.1 6.8 62 3.5 SSE 6 9 3 5 1022.6 1022.6 0.0
27/04:00pm 14.4 13.7 7.0 61 3.6 CALM 0 0 0 0 1022.6 1022.6 0.0
27/03:30pm 14.7 12.0 7.3 61 3.7 SE 11 19 6 10 1022.6 1022.6 0.0
27/03:00pm 14.6 11.9 7.2 61 3.7 SE 11 17 6 9 1022.8 1022.9 0.0
27/02:30pm 14.4 11.6 7.0 61 3.7 SSE 11 17 6 9 1023.0 1023.1 0.0
27/02:00pm 14.5 10.9 6.6 59 3.9 SSE 15 22 8 12 1023.0 1023.1 0.0
27/01:30pm 15.2 12.0 6.7 57 4.2 SSE 13 15 7 8 1023.2 1023.3 0.0
27/01:00pm 14.1 11.2 6.7 61 3.6 SSE 11 15 6 8 1023.4 1023.5 0.0
27/12:30pm 14.0 11.4 6.1 59 3.8 SE 9 13 5 7 1023.8 1023.9 0.0
27/12:00pm 14.1 12.1 6.2 59 3.8 ESE 6 9 3 5 1024.2 1024.3 0.0
27/11:30am 13.4 11.5 6.5 63 3.3 SSE 6 9 3 5 1024.8 1024.9 0.0
27/11:00am 11.6 9.3 5.9 68 2.7 SE 7 13 4 7 1025.1 1025.2 0.0
27/10:30am 10.8 7.9 4.9 67 2.7 SSE 9 13 5 7 1025.3 1025.4 0.0
27/10:00am 10.7 8.4 4.8 67 2.7 SSE 6 11 3 6 1025.3 1025.4 0.0
27/09:30am 10.2 7.7 4.6 68 2.5 SE 7 11 4 6 1025.3 1025.4 0.0
27/09:00am 9.4 7.0 4.2 70 2.3 ESE 6 9 3 5 1025.2 1025.3 0.0
27/08:30am 8.5 5.8 3.9 73 2.0 SE 7 11 4 6 1025.0 1025.1 0.0
27/08:00am 7.6 5.9 3.8 77 1.6 NNW 2 9 1 5 1025.0 1025.1 0.0
27/07:30am 7.8 6.0 3.7 75 1.8 ESE 2 7 1 4 1024.4 1024.5 0.0
27/07:00am 7.8 5.1 3.7 75 1.8 ESE 7 13 4 7 1023.8 1023.9 0.0
27/06:30am 7.8 3.6 3.7 75 1.8 SE 15 20 8 11 1023.5 1023.6 0.0
27/06:00am 7.8 4.0 3.8 76 1.7 SE 13 19 7 10 1023.4 1023.5 0.0
27/05:30am 7.9 5.2 3.6 74 1.9 SE 7 13 4 7 1023.5 1023.6 0.0
27/05:00am 8.4 6.3 3.8 73 2.0 SE 4 11 2 6 1023.2 1023.3 0.0
27/04:30am 8.1 6.0 3.8 74 1.9 ENE 4 11 2 6 1023.1 1023.2 0.0
27/04:00am 8.3 6.2 3.9 74 1.9 SE 4 9 2 5 1023.1 1023.2 0.0
27/03:30am 8.3 6.1 3.6 72 2.0 SE 4 9 2 5 1023.3 1023.4 0.0
27/03:00am 8.6 5.1 3.6 71 2.2 ESE 11 22 6 12 1023.0 1023.1 0.0
27/02:30am 8.6 6.0 3.4 70 2.3 NE 6 17 3 9 1022.9 1023.0 0.0
27/02:00am 9.5 6.5 3.9 68 2.5 SE 9 19 5 10 1022.8 1022.9 0.0
27/01:30am 10.1 5.2 4.9 70 2.4 SE 20 30 11 16 1022.6 1022.6 0.0
27/01:00am 10.7 5.8 5.0 68 2.6 SE 20 28 11 15 1022.8 1022.9 0.0
27/12:30am 11.4 6.4 4.6 63 3.1 SE 20 32 11 17 1022.8 1022.9 0.0
27/12:00am 11.9 7.0 5.1 63 3.1 SE 20 32 11 17 1022.9 1023.0 0.0
 
Date/Time
EST
Temp
°C
App
Temp
°C
Dew
Point
°C
Rel
Hum
%
Delta-T
°C
Wind Press
QNH
hPa
Press
MSL
hPa
Rain since
9am
mm
Dir  Spd
km/h
Gust
km/h
Spd
kts
Gust
kts
26/11:30pm 12.5 7.1 4.7 59 3.6 SE 22 30 12 16 1023.2 1023.3 0.0
26/11:00pm 12.1 7.3 5.7 65 3.0 SE 20 28 11 15 1023.5 1023.6 0.0
26/10:30pm 11.7 7.1 5.8 67 2.8 SE 19 28 10 15 1023.6 1023.7 0.0
26/10:00pm 12.2 7.4 5.4 63 3.2 SE 20 26 11 14 1023.4 1023.5 0.0
26/09:30pm 12.5 8.0 5.9 64 3.1 SE 19 26 10 14 1023.2 1023.3 0.0
26/09:00pm 7.7 5.6 4.1 78 1.6 SE 4 13 2 7 1023.1 1023.2 0.0
26/08:30pm 7.5 6.1 3.4 75 1.8 CALM 0 0 0 0 1022.8 1022.9 0.0
26/08:00pm 9.3 8.1 4.7 73 2.1 CALM 0 6 0 3 1022.6 1022.6 0.0
26/07:30pm 9.8 5.8 5.0 72 2.2 E 15 19 8 10 1022.5 1022.5 0.0
26/07:00pm 10.1 8.1 4.5 68 2.5 SSW 4 7 2 4 1022.3 1022.3 0.0
26/06:30pm 13.1 10.2 6.7 65 3.1 E 11 15 6 8 1022.1 1022.1 0.0
26/06:00pm 11.0 7.9 3.5 60 3.3 E 9 13 5 7 1021.7 1021.7 0.0
26/05:30pm 14.8 12.0 5.1 52 4.6 ESE 9 11 5 6 1021.2 1021.2 0.0
26/05:00pm 15.7 13.7 4.4 47 5.3 S 4 13 2 7 1021.1 1021.1 0.0
26/04:30pm 17.4 16.2 4.7 43 6.1 CALM 0 0 0 0 1021.0 1021.0 0.0
26/04:00pm 19.0 16.5 4.0 37 7.2 SSW 6 7 3 4 1021.1 1021.1 0.0
26/03:30pm 19.5 16.4 3.6 35 7.6 SW 9 11 5 6 1021.2 1021.2 0.0
26/03:00pm 20.0 17.1 2.8 32 8.1 WSW 7 11 4 6 1021.0 1021.0 0.0
26/02:30pm 21.0 18.5 4.6 34 8.1 SW 7 13 4 7 1020.9 1020.9 0.0
26/02:00pm 20.4 18.1 4.8 36 7.7 ESE 6 11 3 6 1021.1 1021.1 0.0
26/01:30pm 20.0 17.7 4.9 37 7.4 S 6 13 3 7 1021.2 1021.2 0.0
26/01:00pm 20.0 17.1 4.9 37 7.4 S 9 13 5 7 1021.6 1021.6 0.0
26/12:30pm 19.6 16.7 4.9 38 7.2 SSE 9 17 5 9 1021.6 1021.6 0.0
26/12:00pm 19.0 16.4 4.0 37 7.2 W 7 15 4 8 1022.0 1022.0 0.0
26/11:30am 18.2 15.6 4.0 39 6.8 SSW 7 13 4 7 1022.3 1022.3 0.0
26/11:00am 17.7 15.2 3.9 40 6.5 SE 6 13 3 7 1022.7 1022.7 0.0
26/10:30am 17.2 14.7 6.4 49 5.4 S 9 13 5 7 1022.9 1023.0 0.0
26/10:00am 16.2 13.8 6.9 54 4.6 S 9 13 5 7 1023.0 1023.1 0.0
26/09:30am 14.7 13.0 7.7 63 3.5 SE 6 9 3 5 1022.9 1023.0 0.0
26/09:00am 11.8 9.7 6.7 71 2.4 S 7 9 4 5 1022.5 1022.5 0.0

Other Formats:

Comma delimited format used in spreadsheet applications
http://www.bom.gov.au/fwo/IDN60801/IDN60801.95734.axf

JavaScript Object Notation format (JSON) in row-major order
http://www.bom.gov.au/fwo/IDN60801/IDN60801.95734.json